KCRW Airport Diagram

We have created a template for each of the higher traffic airports in the vZID airspace. They include KCMH, KCRW, KCVG, KDAY, KIND, KLEX and KSDF. You wil find usefull information including the airport diagram, weather, and specific airport procedures.

KCRW Weather

[Source: ADDS]
METAR
KCRW 241501Z 00000KT 1/2SM -RA FG BKN000 OVC004 14/14 A3008 RMK AO2 P0002 T01390139 RVRNO =
TAF
KCRW 241448Z 2415/2512 VRB03KT 1SM -RA BR BKN001 BKN004 TEMPO 2415/2417 4SM RA BR SCT001 SCT004 BKN040 FM241800 VRB03KT 4SM -RA BR SCT018 OVC035 FM241900 14005KT P6SM -RA OVC035 FM242100 21006KT P6SM OVC035 FM250000 18004KT P6SM BKN250 FM250700 19007KT P6SM -SHRA OVC100 =

KCRW Operations

Calm wind runway up to 10kts: Rw 23

 

JSN Epic template designed by JoomlaShine.com